createdAt,value
2024-02-03T00:00:05.120Z,1.52
2024-02-03T00:02:31.721Z,1.73
2024-02-03T00:04:58.352Z,1.60
2024-02-03T00:07:25.089Z,1.42
2024-02-03T00:12:20.800Z,1.40
2024-02-03T00:14:47.552Z,1.35
2024-02-03T00:17:14.596Z,1.38
2024-02-03T00:19:42.055Z,1.80
2024-02-03T00:22:08.816Z,1.33
2024-02-03T00:24:35.382Z,1.35
2024-02-03T00:27:03.758Z,1.70
2024-02-03T00:29:30.327Z,1.60
2024-02-03T00:31:57.264Z,1.52
2024-02-03T00:34:24.223Z,1.25
2024-02-03T00:36:51.845Z,1.30
2024-02-03T00:39:18.706Z,1.65
2024-02-03T00:44:11.836Z,1.83
2024-02-03T00:46:38.436Z,1.30
2024-02-03T00:49:05.091Z,1.88
2024-02-03T00:51:31.707Z,1.65
2024-02-03T00:53:58.362Z,2.03
2024-02-03T00:56:25.042Z,1.63
2024-02-03T00:58:51.625Z,1.13
2024-02-03T01:01:18.200Z,1.23
2024-02-03T01:03:44.959Z,1.85
2024-02-03T01:08:38.312Z,1.50
2024-02-03T01:11:05.029Z,1.30
2024-02-03T01:13:31.804Z,1.45
2024-02-03T01:18:26.134Z,1.52
2024-02-03T01:20:52.846Z,1.45
2024-02-03T01:23:19.441Z,1.40
2024-02-03T01:25:46.017Z,1.40
2024-02-03T01:28:12.774Z,1.52
2024-02-03T01:30:39.374Z,1.50
2024-02-03T01:33:06.145Z,1.58
2024-02-03T01:37:59.251Z,0.95
2024-02-03T01:40:29.335Z,1.48
2024-02-03T01:43:02.525Z,1.27
2024-02-03T01:47:56.770Z,1.60
2024-02-03T01:50:23.925Z,1.48
2024-02-03T01:52:51.515Z,1.13
2024-02-03T01:55:19.363Z,1.50
2024-02-03T01:57:46.869Z,2.00
2024-02-03T02:00:14.196Z,1.80
2024-02-03T02:02:40.831Z,1.45
2024-02-03T02:05:07.891Z,1.60
2024-02-03T02:07:42.601Z,1.52
2024-02-03T02:10:13.255Z,1.45
2024-02-03T02:12:40.099Z,1.48
2024-02-03T02:15:07.176Z,1.60
2024-02-03T02:17:34.828Z,1.85
2024-02-03T02:20:07.341Z,1.33
2024-02-03T02:22:38.000Z,1.70
2024-02-03T02:25:08.030Z,1.50
2024-02-03T02:27:35.037Z,1.38
2024-02-03T02:30:01.667Z,1.85
2024-02-03T02:32:28.314Z,1.50
2024-02-03T02:34:54.922Z,1.40
2024-02-03T02:37:22.413Z,1.67
2024-02-03T02:39:49.262Z,1.60
2024-02-03T02:42:16.970Z,1.40
2024-02-03T02:44:43.691Z,1.60
2024-02-03T02:47:10.253Z,1.15
2024-02-03T02:49:36.947Z,1.63
2024-02-03T02:52:03.723Z,1.63
2024-02-03T02:54:30.337Z,1.33
2024-02-03T02:56:56.916Z,1.40
2024-02-03T02:59:23.638Z,1.50
2024-02-03T03:01:50.294Z,1.52
2024-02-03T03:04:17.133Z,1.20
2024-02-03T03:09:10.316Z,1.60
2024-02-03T03:11:37.740Z,1.60
2024-02-03T03:14:07.004Z,1.50
2024-02-03T03:16:33.681Z,1.77
2024-02-03T03:19:00.376Z,1.60
2024-02-03T03:23:53.608Z,1.38
2024-02-03T03:26:20.143Z,1.58
2024-02-03T03:28:46.729Z,1.55
2024-02-03T03:31:13.216Z,1.35
2024-02-03T03:33:39.959Z,1.30
2024-02-03T03:36:07.124Z,1.42
2024-02-03T03:38:35.657Z,1.38
2024-02-03T03:41:02.148Z,1.77
2024-02-03T03:43:28.669Z,1.48
2024-02-03T03:45:55.281Z,1.42
2024-02-03T03:48:22.043Z,1.55
2024-02-03T03:53:16.206Z,1.70
2024-02-03T03:55:42.853Z,1.48
2024-02-03T03:58:09.392Z,1.45
2024-02-03T04:00:35.955Z,1.55
2024-02-03T04:03:02.563Z,1.60
2024-02-03T04:05:29.197Z,1.25
2024-02-03T04:07:55.849Z,1.27
2024-02-03T04:10:22.389Z,1.60
2024-02-03T04:12:49.057Z,1.45
2024-02-03T04:15:15.801Z,1.20
2024-02-03T04:17:42.410Z,1.30
2024-02-03T04:20:09.682Z,1.63
2024-02-03T04:22:36.446Z,1.67
2024-02-03T04:25:02.990Z,1.38
2024-02-03T04:27:29.578Z,1.35
2024-02-03T04:29:56.175Z,1.25
2024-02-03T04:32:22.848Z,1.42
2024-02-03T04:34:49.487Z,1.70
2024-02-03T04:37:16.123Z,1.10
2024-02-03T04:39:43.516Z,1.50
2024-02-03T04:42:10.499Z,1.33
2024-02-03T04:44:37.199Z,1.50
2024-02-03T04:47:04.787Z,1.42
2024-02-03T04:49:31.531Z,1.20
2024-02-03T04:52:01.852Z,1.85
2024-02-03T04:54:29.285Z,1.58
2024-02-03T04:56:56.900Z,1.80
2024-02-03T04:59:23.428Z,1.55
2024-02-03T05:01:50.017Z,1.55
2024-02-03T05:04:16.828Z,1.50
2024-02-03T05:09:10.169Z,1.40
2024-02-03T05:11:36.995Z,1.38
2024-02-03T05:16:30.151Z,1.30
2024-02-03T05:18:57.494Z,1.77
2024-02-03T05:21:24.123Z,1.73
2024-02-03T05:26:19.371Z,1.33
2024-02-03T05:28:45.896Z,1.15
2024-02-03T05:31:19.406Z,1.58
2024-02-03T05:33:46.025Z,1.42
2024-02-03T05:36:13.006Z,1.52
2024-02-03T05:38:39.651Z,1.35
2024-02-03T05:41:08.991Z,1.40
2024-02-03T05:43:35.489Z,1.55
2024-02-03T05:46:02.097Z,1.63
2024-02-03T05:48:28.670Z,1.60
2024-02-03T05:50:55.246Z,1.50
2024-02-03T05:53:21.770Z,1.50
2024-02-03T05:55:48.346Z,1.73
2024-02-03T05:58:15.824Z,1.58
2024-02-03T06:00:42.484Z,1.40
2024-02-03T06:03:09.086Z,1.50
2024-02-03T06:05:39.192Z,1.90
2024-02-03T06:08:11.205Z,1.63
2024-02-03T06:10:37.938Z,1.50
2024-02-03T06:15:34.134Z,1.67
2024-02-03T06:18:00.826Z,1.55
2024-02-03T06:20:27.385Z,1.60
2024-02-03T06:22:53.876Z,1.50
2024-02-03T06:25:20.422Z,1.48
2024-02-03T06:27:47.025Z,1.33
2024-02-03T06:30:14.045Z,2.05
2024-02-03T06:32:40.611Z,1.33
2024-02-03T06:35:07.650Z,1.50
2024-02-03T06:37:34.209Z,1.60
2024-02-03T06:40:00.744Z,2.10
2024-02-03T06:42:27.279Z,1.48
2024-02-03T06:44:53.889Z,1.70
2024-02-03T06:47:20.500Z,1.52
2024-02-03T06:49:47.521Z,1.67
2024-02-03T06:52:14.108Z,1.83
2024-02-03T06:54:40.683Z,1.48
2024-02-03T06:57:07.304Z,1.05
2024-02-03T06:59:33.830Z,1.38
2024-02-03T07:02:00.485Z,1.50
2024-02-03T07:04:27.033Z,1.50
2024-02-03T07:06:53.678Z,1.45
2024-02-03T07:09:20.582Z,1.73
2024-02-03T07:11:56.509Z,1.63
2024-02-03T07:14:28.270Z,1.13
2024-02-03T07:19:21.301Z,1.42
2024-02-03T07:21:47.974Z,1.73
2024-02-03T07:24:15.376Z,1.58
2024-02-03T07:26:41.911Z,2.40
2024-02-03T07:29:08.779Z,2.08
2024-02-03T07:31:35.295Z,1.50
2024-02-03T07:34:01.955Z,1.90
2024-02-03T07:38:55.747Z,1.95
2024-02-03T07:41:22.299Z,2.00
2024-02-03T07:43:48.895Z,1.60
2024-02-03T07:46:15.454Z,1.80
2024-02-03T07:48:42.182Z,1.63
2024-02-03T07:53:36.160Z,1.45
2024-02-03T07:56:03.073Z,2.00
2024-02-03T07:58:29.585Z,1.80
2024-02-03T08:00:57.678Z,1.75
2024-02-03T08:03:24.286Z,1.48
2024-02-03T08:05:50.970Z,1.88
2024-02-03T08:08:17.508Z,1.83
2024-02-03T08:10:44.064Z,1.67
2024-02-03T08:13:10.672Z,1.65
2024-02-03T08:15:37.256Z,1.15
2024-02-03T08:18:06.222Z,1.75
2024-02-03T08:20:32.764Z,1.80
2024-02-03T08:22:59.459Z,1.60
2024-02-03T08:25:26.916Z,1.73
2024-02-03T08:27:53.617Z,1.58
2024-02-03T08:30:20.220Z,1.70
2024-02-03T08:32:46.837Z,1.58
2024-02-03T08:37:42.800Z,1.50
2024-02-03T08:40:09.668Z,1.70
2024-02-03T08:42:36.323Z,1.75
2024-02-03T08:45:03.059Z,2.08
2024-02-03T08:47:29.598Z,1.10
2024-02-03T08:49:57.923Z,1.65
2024-02-03T08:52:24.594Z,1.92
2024-02-03T08:54:51.429Z,1.50
2024-02-03T08:57:18.032Z,1.38
2024-02-03T08:59:44.624Z,1.45
2024-02-03T09:02:11.215Z,1.58
2024-02-03T09:04:37.869Z,1.42
2024-02-03T09:07:04.744Z,1.80
2024-02-03T09:11:57.724Z,1.58
2024-02-03T09:14:24.246Z,1.15
2024-02-03T09:16:50.830Z,1.52
2024-02-03T09:19:17.519Z,1.35
2024-02-03T09:21:44.096Z,1.10
2024-02-03T09:24:10.794Z,1.38
2024-02-03T09:29:08.561Z,1.67
2024-02-03T09:31:35.534Z,1.17
2024-02-03T09:34:06.837Z,1.55
2024-02-03T09:36:34.029Z,1.25
2024-02-03T09:39:01.172Z,1.75
2024-02-03T09:41:28.347Z,1.60
2024-02-03T09:43:55.490Z,1.52
2024-02-03T09:46:22.074Z,1.25
2024-02-03T09:48:48.824Z,1.40
2024-02-03T09:51:15.564Z,1.40
2024-02-03T09:53:44.369Z,1.30
2024-02-03T09:56:11.115Z,1.63
2024-02-03T10:01:07.407Z,1.20
2024-02-03T10:03:34.741Z,1.40
2024-02-03T10:06:03.370Z,1.40
2024-02-03T10:08:33.226Z,1.20
2024-02-03T10:10:59.865Z,1.90
2024-02-03T10:13:27.102Z,1.20
2024-02-03T10:16:04.073Z,1.80
2024-02-03T10:18:34.793Z,1.23
2024-02-03T10:21:02.149Z,1.20
2024-02-03T10:23:28.777Z,1.40
2024-02-03T10:25:59.060Z,1.15
2024-02-03T10:28:25.665Z,1.17
2024-02-03T10:30:53.916Z,1.30
2024-02-03T10:33:20.590Z,1.20
2024-02-03T10:35:47.480Z,1.23
2024-02-03T10:38:14.465Z,1.35
2024-02-03T10:40:40.994Z,1.20
2024-02-03T10:43:15.106Z,0.93
2024-02-03T10:45:44.687Z,1.10
2024-02-03T10:48:17.496Z,1.25
2024-02-03T10:50:58.937Z,1.33
2024-02-03T10:53:31.638Z,1.40
2024-02-03T10:56:03.064Z,1.48
2024-02-03T10:58:30.394Z,1.50
2024-02-03T11:00:58.816Z,1.20
2024-02-03T11:03:25.573Z,1.27
2024-02-03T11:05:55.800Z,1.30
2024-02-03T11:08:22.705Z,0.98
2024-02-03T11:10:50.489Z,1.20
2024-02-03T11:13:24.180Z,1.08
2024-02-03T11:15:58.176Z,1.45
2024-02-03T11:18:26.038Z,1.30
2024-02-03T11:21:06.354Z,1.17
2024-02-03T11:23:33.200Z,1.20
2024-02-03T11:26:00.627Z,1.52
2024-02-03T11:28:33.010Z,1.20
2024-02-03T11:31:05.748Z,1.10
2024-02-03T11:33:47.512Z,1.08
2024-02-03T11:36:14.533Z,1.13
2024-02-03T11:41:11.051Z,1.00
2024-02-03T11:43:38.218Z,1.20
2024-02-03T11:46:07.082Z,1.00
2024-02-03T11:48:34.050Z,1.10
2024-02-03T11:51:00.880Z,1.10
2024-02-03T11:53:28.351Z,1.15
2024-02-03T11:55:55.466Z,1.13
2024-02-03T11:58:22.307Z,1.10
2024-02-03T12:00:49.252Z,0.80
2024-02-03T12:03:16.087Z,0.90
2024-02-03T12:05:43.240Z,1.60
2024-02-03T12:08:09.969Z,0.90
2024-02-03T12:13:03.830Z,1.10
2024-02-03T12:15:30.759Z,0.85
2024-02-03T12:18:05.155Z,0.95
2024-02-03T12:20:32.048Z,0.60
2024-02-03T12:25:25.198Z,0.90
2024-02-03T12:30:20.046Z,0.93
2024-02-03T12:32:47.257Z,0.93
2024-02-03T12:35:15.078Z,1.05
2024-02-03T12:37:42.345Z,0.93
2024-02-03T12:40:12.848Z,0.90
2024-02-03T12:42:39.428Z,0.82
2024-02-03T12:45:07.475Z,1.15
2024-02-03T12:47:34.886Z,1.40
2024-02-03T12:50:01.805Z,1.10
2024-02-03T12:52:29.497Z,1.15
2024-02-03T12:54:56.703Z,0.88
2024-02-03T12:57:23.347Z,1.02
2024-02-03T12:59:49.958Z,0.90
2024-02-03T13:02:16.591Z,0.80
2024-02-03T13:04:43.166Z,1.10
2024-02-03T13:07:09.799Z,1.33
2024-02-03T13:09:36.367Z,0.85
2024-02-03T13:12:03.036Z,1.20
2024-02-03T13:14:30.082Z,0.90
2024-02-03T13:16:56.685Z,0.90
2024-02-03T13:19:23.211Z,1.10
2024-02-03T13:21:49.786Z,1.08
2024-02-03T13:24:16.489Z,0.90
2024-02-03T13:26:45.628Z,1.40
2024-02-03T13:29:12.146Z,0.82
2024-02-03T13:31:38.664Z,1.08
2024-02-03T13:34:05.461Z,1.35
2024-02-03T13:36:32.098Z,0.98
2024-02-03T13:38:58.725Z,0.80
2024-02-03T13:41:25.467Z,0.90
2024-02-03T13:43:52.044Z,0.90
2024-02-03T13:46:18.696Z,0.95
2024-02-03T13:48:45.404Z,1.05
2024-02-03T13:51:12.180Z,0.77
2024-02-03T13:53:38.969Z,0.88
2024-02-03T13:58:33.054Z,1.05
2024-02-03T14:00:59.867Z,0.82
2024-02-03T14:03:26.516Z,0.95
2024-02-03T14:05:53.121Z,0.90
2024-02-03T14:08:22.601Z,1.23
2024-02-03T14:10:49.468Z,1.15
2024-02-03T14:13:15.986Z,0.98
2024-02-03T14:15:42.568Z,0.77
2024-02-03T14:18:09.238Z,1.00
2024-02-03T14:20:36.616Z,0.93
2024-02-03T14:23:05.220Z,0.90
2024-02-03T14:25:32.055Z,0.85
2024-02-03T14:30:25.193Z,1.10
2024-02-03T14:32:51.797Z,0.70
2024-02-03T14:35:20.120Z,1.13
2024-02-03T14:37:46.959Z,0.70
2024-02-03T14:40:13.707Z,1.00
2024-02-03T14:45:08.077Z,0.90
2024-02-03T14:47:34.624Z,0.98
2024-02-03T14:50:01.586Z,1.20
2024-02-03T14:52:28.380Z,0.60
2024-02-03T14:54:55.077Z,0.93
2024-02-03T14:59:54.194Z,1.00
2024-02-03T15:02:21.319Z,0.90
2024-02-03T15:04:47.925Z,0.80
2024-02-03T15:07:14.817Z,0.75
2024-02-03T15:09:41.430Z,1.02
2024-02-03T15:12:08.022Z,0.90
2024-02-03T15:14:34.550Z,0.82
2024-02-03T15:17:01.032Z,1.15
2024-02-03T15:19:27.735Z,1.00
2024-02-03T15:21:54.440Z,0.80
2024-02-03T15:24:21.116Z,1.00
2024-02-03T15:26:47.657Z,1.10
2024-02-03T15:29:14.227Z,1.10
2024-02-03T15:31:40.838Z,0.68
2024-02-03T15:34:07.552Z,0.80
2024-02-03T15:36:34.210Z,0.90
2024-02-03T15:39:00.783Z,0.88
2024-02-03T15:41:27.352Z,1.17
2024-02-03T15:43:54.056Z,1.00
2024-02-03T15:46:30.229Z,0.80
2024-02-03T15:49:03.190Z,0.65
2024-02-03T15:51:29.848Z,0.80
2024-02-03T15:53:56.411Z,0.98
2024-02-03T15:56:23.150Z,0.85
2024-02-03T16:01:16.447Z,0.70
2024-02-03T16:06:10.101Z,0.90
2024-02-03T16:08:36.671Z,1.08
2024-02-03T16:11:03.413Z,0.80
2024-02-03T16:15:57.390Z,1.00
2024-02-03T16:18:24.523Z,0.60
2024-02-03T16:20:51.197Z,1.00
2024-02-03T16:23:17.905Z,0.93
2024-02-03T16:25:44.497Z,1.13
2024-02-03T16:28:11.169Z,0.80
2024-02-03T16:30:37.892Z,0.65
2024-02-03T16:33:04.799Z,0.77
2024-02-03T16:35:31.718Z,1.02
2024-02-03T16:37:58.658Z,0.70
2024-02-03T16:40:25.265Z,1.02
2024-02-03T16:42:51.978Z,1.02
2024-02-03T16:47:45.122Z,0.80
2024-02-03T16:50:11.717Z,0.85
2024-02-03T16:52:38.298Z,0.52
2024-02-03T16:55:05.286Z,0.80
2024-02-03T16:57:32.254Z,0.75
2024-02-03T16:59:59.154Z,0.80
2024-02-03T17:02:26.486Z,1.02
2024-02-03T17:04:53.310Z,0.82
2024-02-03T17:09:47.249Z,0.90
2024-02-03T17:12:13.776Z,0.90
2024-02-03T17:14:40.345Z,0.90
2024-02-03T17:17:07.120Z,0.60
2024-02-03T17:22:00.813Z,0.77
2024-02-03T17:24:27.541Z,1.10
2024-02-03T17:26:54.121Z,0.80
2024-02-03T17:29:20.799Z,0.93
2024-02-03T17:34:13.954Z,0.75
2024-02-03T17:39:07.290Z,1.27
2024-02-03T17:41:33.916Z,0.80
2024-02-03T17:44:00.427Z,0.70
2024-02-03T17:46:26.992Z,0.70
2024-02-03T17:48:54.189Z,0.88
2024-02-03T17:51:21.567Z,0.73
2024-02-03T17:53:48.093Z,1.00
2024-02-03T17:56:14.663Z,0.80
2024-02-03T17:58:41.197Z,0.80
2024-02-03T18:01:10.737Z,1.00
2024-02-03T18:03:39.323Z,0.73
2024-02-03T18:06:07.426Z,0.80
2024-02-03T18:08:34.093Z,0.82
2024-02-03T18:11:01.836Z,0.82
2024-02-03T18:13:28.414Z,0.88
2024-02-03T18:15:55.019Z,0.93
2024-02-03T18:18:22.844Z,0.95
2024-02-03T18:20:49.464Z,1.00
2024-02-03T18:23:16.007Z,0.85
2024-02-03T18:25:42.614Z,0.90
2024-02-03T18:28:09.696Z,0.93
2024-02-03T18:30:36.255Z,0.82
2024-02-03T18:33:02.916Z,0.98
2024-02-03T18:35:29.504Z,0.75
2024-02-03T18:37:56.091Z,0.70
2024-02-03T18:40:22.692Z,0.70
2024-02-03T18:42:49.328Z,0.95
2024-02-03T18:45:16.041Z,0.77
2024-02-03T18:47:42.768Z,0.90
2024-02-03T18:50:10.264Z,0.80
2024-02-03T18:52:37.037Z,0.82
2024-02-03T18:55:03.938Z,0.80
2024-02-03T18:57:31.141Z,0.70
2024-02-03T18:59:57.682Z,1.05
2024-02-03T19:02:24.203Z,0.77
2024-02-03T19:04:50.828Z,0.73
2024-02-03T19:07:17.511Z,0.70
2024-02-03T19:09:44.286Z,0.70
2024-02-03T19:14:39.193Z,0.90
2024-02-03T19:17:06.053Z,0.73
2024-02-03T19:19:33.009Z,0.88
2024-02-03T19:24:26.897Z,0.93
2024-02-03T19:26:53.519Z,0.73
2024-02-03T19:29:20.022Z,0.70
2024-02-03T19:31:46.693Z,0.70
2024-02-03T19:34:13.286Z,0.82
2024-02-03T19:36:39.979Z,0.70
2024-02-03T19:39:08.683Z,0.82
2024-02-03T19:41:36.300Z,0.75
2024-02-03T19:44:03.257Z,0.50
2024-02-03T19:46:29.855Z,0.60
2024-02-03T19:48:56.560Z,0.80
2024-02-03T19:53:49.786Z,0.60
2024-02-03T19:56:16.338Z,0.82
2024-02-03T19:58:42.868Z,0.60
2024-02-03T20:01:09.556Z,0.80
2024-02-03T20:06:03.191Z,0.60
2024-02-03T20:10:57.220Z,0.90
2024-02-03T20:13:26.846Z,0.93
2024-02-03T20:15:54.732Z,0.85
2024-02-03T20:18:21.596Z,0.82
2024-02-03T20:20:53.305Z,0.88
2024-02-03T20:23:20.572Z,0.70
2024-02-03T20:25:47.145Z,0.73
2024-02-03T20:28:13.822Z,0.73
2024-02-03T20:30:40.755Z,0.75
2024-02-03T20:33:08.289Z,0.82
2024-02-03T20:35:35.137Z,0.73
2024-02-03T20:40:28.639Z,0.70
2024-02-03T20:42:55.459Z,0.60
2024-02-03T20:45:22.866Z,0.70
2024-02-03T20:47:49.565Z,0.80
2024-02-03T20:52:42.892Z,0.90
2024-02-03T20:55:09.570Z,0.50
2024-02-03T20:57:36.522Z,0.70
2024-02-03T21:00:04.094Z,0.70
2024-02-03T21:02:30.737Z,0.73
2024-02-03T21:04:57.548Z,1.25
2024-02-03T21:09:51.033Z,0.63
2024-02-03T21:12:17.745Z,0.68
2024-02-03T21:14:44.609Z,0.75
2024-02-03T21:19:38.559Z,0.50
2024-02-03T21:22:05.333Z,0.82
2024-02-03T21:24:31.899Z,0.70
2024-02-03T21:26:59.163Z,0.77
2024-02-03T21:29:25.728Z,0.80
2024-02-03T21:31:52.339Z,0.90
2024-02-03T21:34:18.992Z,0.77
2024-02-03T21:36:45.726Z,0.70
2024-02-03T21:39:12.856Z,0.60
2024-02-03T21:41:40.165Z,0.80
2024-02-03T21:44:07.309Z,0.73
2024-02-03T21:46:33.946Z,0.80
2024-02-03T21:49:00.658Z,0.90
2024-02-03T21:53:53.796Z,0.73
2024-02-03T21:56:21.048Z,0.68
2024-02-03T21:58:47.818Z,0.57
2024-02-03T22:03:41.189Z,0.65
2024-02-03T22:08:34.700Z,0.65
2024-02-03T22:13:28.378Z,0.60
2024-02-03T22:15:55.147Z,0.57
2024-02-03T22:18:22.320Z,0.60
2024-02-03T22:20:49.224Z,0.63
2024-02-03T22:25:42.730Z,0.60
2024-02-03T22:28:09.409Z,0.75
2024-02-03T22:33:04.719Z,0.50
2024-02-03T22:35:32.998Z,0.50
2024-02-03T22:38:00.219Z,0.60
2024-02-03T22:40:26.790Z,0.60
2024-02-03T22:42:53.592Z,0.60
2024-02-03T22:47:50.699Z,0.63
2024-02-03T22:50:17.530Z,0.70
2024-02-03T22:52:44.162Z,0.50
2024-02-03T22:55:10.929Z,0.60
2024-02-03T23:00:16.144Z,0.45
2024-02-03T23:02:42.811Z,0.55
2024-02-03T23:05:09.500Z,0.60
2024-02-03T23:07:36.078Z,0.55
2024-02-03T23:10:05.259Z,0.65
2024-02-03T23:12:31.998Z,0.50
2024-02-03T23:14:58.580Z,0.55
2024-02-03T23:17:25.954Z,0.68
2024-02-03T23:19:53.852Z,0.52
2024-02-03T23:22:20.640Z,0.50
2024-02-03T23:24:47.433Z,0.60
2024-02-03T23:29:40.705Z,0.60
2024-02-03T23:32:08.040Z,0.98
2024-02-03T23:34:34.798Z,0.55
2024-02-03T23:39:28.179Z,0.65
2024-02-03T23:41:54.734Z,0.60
2024-02-03T23:44:21.249Z,0.50
2024-02-03T23:46:48.205Z,0.50
2024-02-03T23:49:15.040Z,0.60
2024-02-03T23:51:41.635Z,0.75
2024-02-03T23:54:09.738Z,0.80
2024-02-03T23:56:36.350Z,0.35
2024-02-03T23:59:02.962Z,0.95
